Terminal Aerodrome Forecast
Issued by NWS

Home | Current Version | Previous Version | Text Only | Print | Product List | Glossary On
Versions: 1 2 3 4 5 6 7 8 9 10 11 12 13 14 15 16
000
FTUS44 KCRP 252334
TAFALI
TAF
KALI 252334Z 2600/2624 16013KT P6SM SCT015 SCT025
     FM260500 15008KT P6SM OVC012
      TEMPO 2610/2614 BKN008
     FM261400 16013KT P6SM SCT012 BKN020
     FM261800 14015G20KT P6SM SCT025 BKN035=

USA.gov is the U.S. government's official web portal to all federal, state and local government web resources and services.